createdAt,value
2019-04-27T00:01:05.288Z,11.83
2019-04-27T00:03:10.201Z,10.78
2019-04-27T00:05:46.556Z,12.60
2019-04-27T00:07:57.953Z,8.13
2019-04-27T00:10:00.546Z,8.63
2019-04-27T00:12:07.657Z,11.78
2019-04-27T00:14:10.320Z,11.78
2019-04-27T00:16:31.787Z,14.13
2019-04-27T00:18:55.875Z,12.33
2019-04-27T00:21:18.367Z,9.98
2019-04-27T00:23:23.607Z,9.28
2019-04-27T00:25:27.016Z,13.25
2019-04-27T00:27:28.765Z,12.85
2019-04-27T00:29:30.810Z,8.30
2019-04-27T00:31:33.662Z,10.90
2019-04-27T00:33:35.646Z,13.38
2019-04-27T00:35:49.822Z,10.23
2019-04-27T00:38:13.048Z,9.30
2019-04-27T00:40:19.334Z,10.88
2019-04-27T00:42:21.219Z,7.42
2019-04-27T00:44:23.687Z,8.78
2019-04-27T00:46:25.855Z,9.93
2019-04-27T00:48:27.861Z,7.97
2019-04-27T00:50:29.687Z,6.47
2019-04-27T00:52:32.611Z,8.65
2019-04-27T00:54:35.421Z,13.20
2019-04-27T00:56:55.352Z,10.55
2019-04-27T00:59:14.934Z,11.22
2019-04-27T01:01:43.606Z,13.20
2019-04-27T01:03:55.154Z,11.30
2019-04-27T01:05:57.269Z,6.53
2019-04-27T01:07:59.216Z,8.25
2019-04-27T01:10:03.007Z,5.08
2019-04-27T01:12:05.405Z,6.83
2019-04-27T01:14:07.322Z,8.88
2019-04-27T01:16:10.449Z,9.45
2019-04-27T01:18:15.407Z,8.60
2019-04-27T01:20:18.474Z,9.63
2019-04-27T01:22:20.313Z,9.98
2019-04-27T01:24:22.315Z,5.08
2019-04-27T01:26:38.812Z,10.50
2019-04-27T01:28:49.042Z,14.30
2019-04-27T01:30:54.037Z,9.53
2019-04-27T01:32:55.715Z,8.90
2019-04-27T01:34:59.104Z,11.73
2019-04-27T01:37:01.657Z,9.95
2019-04-27T01:39:08.480Z,9.28
2019-04-27T01:41:10.252Z,10.53
2019-04-27T01:43:12.030Z,13.53
2019-04-27T01:45:13.891Z,8.50
2019-04-27T01:47:15.965Z,7.05
2019-04-27T01:49:19.401Z,10.38
2019-04-27T01:51:21.232Z,13.22
2019-04-27T01:53:22.978Z,12.18
2019-04-27T01:55:24.981Z,11.63
2019-04-27T01:57:26.980Z,8.00
2019-04-27T01:59:30.024Z,6.87
2019-04-27T02:01:50.040Z,9.38
2019-04-27T02:04:02.487Z,7.17
2019-04-27T02:06:04.189Z,10.55
2019-04-27T02:08:05.860Z,12.47
2019-04-27T02:10:08.998Z,10.50
2019-04-27T02:12:11.365Z,9.18
2019-04-27T02:14:13.410Z,9.40
2019-04-27T02:16:15.286Z,9.18
2019-04-27T02:18:19.311Z,9.43
2019-04-27T02:21:18.900Z,8.00
2019-04-27T02:23:21.255Z,12.70
2019-04-27T02:25:23.144Z,12.00
2019-04-27T02:27:28.667Z,11.35
2019-04-27T02:29:56.499Z,10.98
2019-04-27T02:32:20.173Z,9.38
2019-04-27T02:34:23.658Z,13.30
2019-04-27T02:36:25.556Z,9.70
2019-04-27T02:38:27.434Z,8.90
2019-04-27T02:40:51.009Z,17.65
2019-04-27T02:42:54.627Z,8.18
2019-04-27T02:44:56.522Z,10.70
2019-04-27T02:47:00.288Z,10.10
2019-04-27T02:49:06.427Z,11.40
2019-04-27T02:51:09.917Z,12.82
2019-04-27T02:53:11.662Z,8.85
2019-04-27T02:55:13.313Z,13.88
2019-04-27T02:57:15.255Z,10.85
2019-04-27T02:59:19.675Z,8.20
2019-04-27T03:01:21.942Z,13.13
2019-04-27T03:03:23.719Z,10.15
2019-04-27T03:05:25.632Z,9.30
2019-04-27T03:07:30.239Z,16.05
2019-04-27T03:09:32.342Z,8.43
2019-04-27T03:11:34.173Z,13.40
2019-04-27T03:13:42.580Z,13.08
2019-04-27T03:16:07.035Z,8.43
2019-04-27T03:18:34.513Z,9.30
2019-04-27T03:20:41.959Z,8.20
2019-04-27T03:22:46.820Z,13.50
2019-04-27T03:25:20.559Z,13.62
2019-04-27T03:27:24.120Z,10.93
2019-04-27T03:29:26.218Z,8.68
2019-04-27T03:31:32.336Z,15.53
2019-04-27T03:33:32.915Z,9.00
2019-04-27T03:35:36.479Z,9.95
2019-04-27T03:37:40.404Z,10.80
2019-04-27T03:39:42.335Z,9.78
2019-04-27T03:41:44.168Z,18.20
2019-04-27T03:43:45.813Z,11.53
2019-04-27T03:45:51.775Z,11.22
2019-04-27T03:47:51.251Z,14.78
2019-04-27T03:49:54.211Z,11.65
2019-04-27T03:52:09.646Z,10.65
2019-04-27T03:54:40.256Z,11.90
2019-04-27T03:56:44.819Z,14.28
2019-04-27T03:58:51.642Z,13.28
2019-04-27T04:00:53.627Z,14.15
2019-04-27T04:02:55.546Z,12.50
2019-04-27T04:04:59.604Z,16.77
2019-04-27T04:07:12.192Z,14.43
2019-04-27T04:09:14.076Z,11.90
2019-04-27T04:11:24.497Z,12.50
2019-04-27T04:13:30.843Z,11.25
2019-04-27T04:15:55.101Z,11.88
2019-04-27T04:17:59.391Z,15.18
2019-04-27T04:20:01.912Z,13.95
2019-04-27T04:22:03.904Z,13.10
2019-04-27T04:24:05.606Z,13.75
2019-04-27T04:26:09.743Z,16.25
2019-04-27T04:29:53.661Z,15.90
2019-04-27T04:31:55.315Z,17.65
2019-04-27T04:33:59.514Z,17.80
2019-04-27T04:36:00.653Z,16.82
2019-04-27T04:38:02.558Z,15.98
2019-04-27T04:40:04.391Z,14.78
2019-04-27T04:42:29.959Z,22.37
2019-04-27T04:44:46.566Z,15.70
2019-04-27T04:47:15.608Z,15.53
2019-04-27T04:49:19.421Z,18.98
2019-04-27T04:51:21.094Z,15.95
2019-04-27T04:53:23.155Z,17.70
2019-04-27T04:55:24.952Z,19.62
2019-04-27T04:57:26.592Z,12.73
2019-04-27T04:59:29.126Z,15.28
2019-04-27T05:01:31.261Z,16.15
2019-04-27T05:03:33.180Z,19.37
2019-04-27T05:05:35.024Z,18.15
2019-04-27T05:07:38.628Z,17.67
2019-04-27T05:09:40.632Z,17.05
2019-04-27T05:11:42.406Z,22.30
2019-04-27T05:13:44.344Z,23.62
2019-04-27T05:15:46.130Z,19.50
2019-04-27T05:17:48.366Z,27.02
2019-04-27T05:19:52.259Z,20.05
2019-04-27T05:21:53.926Z,20.23
2019-04-27T05:23:55.628Z,20.80
2019-04-27T05:25:59.190Z,24.10
2019-04-27T05:28:01.020Z,21.52
2019-04-27T05:30:03.783Z,21.02
2019-04-27T05:32:05.735Z,24.52
2019-04-27T05:34:09.518Z,20.20
2019-04-27T05:36:11.395Z,22.50
2019-04-27T05:38:13.646Z,18.90
2019-04-27T05:40:15.462Z,20.90
2019-04-27T05:42:20.008Z,18.80
2019-04-27T05:44:35.083Z,19.40
2019-04-27T05:47:05.317Z,16.27
2019-04-27T05:49:09.683Z,13.62
2019-04-27T05:51:11.579Z,20.90
2019-04-27T05:53:13.538Z,20.60
2019-04-27T05:55:15.416Z,19.25
2019-04-27T05:57:17.305Z,18.82
2019-04-27T05:59:19.946Z,15.55
2019-04-27T06:01:21.688Z,14.05
2019-04-27T06:03:23.619Z,17.73
2019-04-27T06:05:25.555Z,15.85
2019-04-27T06:07:29.414Z,19.80
2019-04-27T06:09:31.211Z,15.35
2019-04-27T06:11:32.983Z,14.05
2019-04-27T06:13:35.234Z,14.47
2019-04-27T06:15:36.897Z,15.15
2019-04-27T06:17:38.830Z,20.25
2019-04-27T06:19:43.771Z,17.55
2019-04-27T06:21:44.397Z,12.05
2019-04-27T06:23:46.249Z,15.08
2019-04-27T06:25:49.215Z,15.83
2019-04-27T06:27:51.290Z,12.03
2019-04-27T06:29:53.279Z,10.65
2019-04-27T06:31:55.480Z,18.25
2019-04-27T06:33:57.227Z,10.75
2019-04-27T06:36:01.756Z,12.60
2019-04-27T06:38:03.826Z,11.35
2019-04-27T06:40:06.151Z,17.92
2019-04-27T06:42:16.687Z,13.00
2019-04-27T06:44:11.584Z,15.23
2019-04-27T06:46:13.313Z,15.95
2019-04-27T06:48:15.382Z,14.85
2019-04-27T06:50:17.178Z,15.13
2019-04-27T06:52:19.058Z,13.05
2019-04-27T06:54:21.543Z,11.10
2019-04-27T06:58:24.773Z,14.55
2019-04-27T07:00:26.671Z,12.00
2019-04-27T07:02:29.234Z,17.67
2019-04-27T07:04:31.206Z,20.25
2019-04-27T07:06:32.955Z,16.82
2019-04-27T07:08:34.863Z,10.70
2019-04-27T07:10:39.030Z,23.45
2019-04-27T07:12:41.183Z,23.57
2019-04-27T07:14:52.416Z,23.42
2019-04-27T07:16:46.912Z,25.52
2019-04-27T07:18:50.368Z,24.32
2019-04-27T07:20:52.640Z,13.05
2019-04-27T07:22:54.566Z,21.25
2019-04-27T07:24:56.475Z,19.00
2019-04-27T07:26:59.694Z,20.85
2019-04-27T07:29:01.652Z,27.15
2019-04-27T07:31:03.647Z,22.90
2019-04-27T07:33:05.740Z,18.85
2019-04-27T07:35:07.371Z,28.70
2019-04-27T07:37:11.088Z,21.00
2019-04-27T07:39:13.117Z,23.95
2019-04-27T07:41:15.250Z,23.30
2019-04-27T07:43:29.308Z,22.32
2019-04-27T07:45:34.644Z,15.38
2019-04-27T07:47:36.957Z,20.02
2019-04-27T07:49:39.166Z,19.07
2019-04-27T07:51:41.248Z,28.30
2019-04-27T07:53:43.006Z,22.50
2019-04-27T07:55:44.757Z,25.68
2019-04-27T07:57:46.962Z,24.12
2019-04-27T07:59:50.154Z,23.47
2019-04-27T08:01:52.142Z,29.60
2019-04-27T08:03:54.028Z,22.30
2019-04-27T08:05:55.681Z,23.77
2019-04-27T08:07:57.315Z,20.15
2019-04-27T08:10:01.702Z,22.82
2019-04-27T08:12:03.059Z,20.60
2019-04-27T08:14:05.449Z,19.80
2019-04-27T08:18:10.959Z,23.65
2019-04-27T08:20:12.783Z,18.42
2019-04-27T08:22:14.708Z,25.48
2019-04-27T08:24:16.683Z,13.95
2019-04-27T08:26:26.434Z,17.98
2019-04-27T08:28:41.537Z,26.07
2019-04-27T08:30:58.555Z,21.90
2019-04-27T08:33:03.594Z,24.02
2019-04-27T08:35:05.929Z,28.07
2019-04-27T08:37:09.159Z,21.07
2019-04-27T08:39:11.477Z,23.55
2019-04-27T08:41:14.543Z,28.77
2019-04-27T08:43:16.310Z,25.08
2019-04-27T08:45:19.588Z,19.87
2019-04-27T08:47:21.625Z,14.80
2019-04-27T08:49:23.470Z,23.85
2019-04-27T08:51:25.203Z,26.20
2019-04-27T08:53:26.966Z,30.40
2019-04-27T08:55:29.438Z,22.17
2019-04-27T08:59:33.568Z,22.67
2019-04-27T09:01:35.893Z,28.67
2019-04-27T09:03:39.380Z,23.90
2019-04-27T09:05:41.671Z,26.68
2019-04-27T09:08:02.956Z,19.32
2019-04-27T09:10:09.776Z,20.85
2019-04-27T09:12:29.963Z,20.88
2019-04-27T09:14:40.757Z,19.90
2019-04-27T09:17:09.678Z,22.30
2019-04-27T09:19:23.377Z,20.15
2019-04-27T09:21:27.135Z,14.45
2019-04-27T09:23:28.885Z,24.92
2019-04-27T09:25:30.644Z,19.87
2019-04-27T09:27:32.322Z,18.90
2019-04-27T09:29:34.238Z,20.30
2019-04-27T09:31:35.903Z,16.10
2019-04-27T09:33:37.636Z,21.85
2019-04-27T09:35:39.511Z,19.37
2019-04-27T09:37:41.582Z,17.02
2019-04-27T09:39:43.572Z,20.17
2019-04-27T09:41:46.012Z,19.98
2019-04-27T09:43:49.128Z,19.98
2019-04-27T09:45:51.005Z,23.35
2019-04-27T09:47:53.005Z,20.85
2019-04-27T09:50:39.238Z,25.35
2019-04-27T09:52:41.665Z,27.70
2019-04-27T09:54:43.568Z,20.77
2019-04-27T09:56:46.771Z,20.10
2019-04-27T09:58:48.874Z,26.12
2019-04-27T10:00:50.669Z,21.15
2019-04-27T10:02:53.193Z,26.75
2019-04-27T10:06:58.451Z,23.73
2019-04-27T10:09:00.517Z,23.83
2019-04-27T10:11:02.261Z,20.97
2019-04-27T10:13:04.644Z,22.17
2019-04-27T10:15:07.279Z,12.85
2019-04-27T10:17:09.481Z,16.70
2019-04-27T10:19:11.897Z,18.15
2019-04-27T10:21:13.897Z,21.68
2019-04-27T10:23:16.263Z,12.55
2019-04-27T10:25:23.932Z,17.87
2019-04-27T10:27:27.015Z,19.73
2019-04-27T10:29:29.094Z,15.28
2019-04-27T10:31:31.088Z,17.50
2019-04-27T10:33:33.113Z,16.42
2019-04-27T10:35:36.321Z,19.75
2019-04-27T10:37:38.889Z,19.07
2019-04-27T10:39:41.155Z,17.85
2019-04-27T10:41:43.171Z,13.25
2019-04-27T10:43:45.351Z,13.20
2019-04-27T10:45:47.426Z,14.00
2019-04-27T10:47:49.756Z,17.17
2019-04-27T10:49:51.964Z,16.37
2019-04-27T10:51:55.653Z,17.27
2019-04-27T10:53:57.836Z,12.75
2019-04-27T10:55:59.905Z,11.95
2019-04-27T10:58:01.874Z,17.15
2019-04-27T11:00:06.797Z,11.22
2019-04-27T11:02:09.872Z,12.40
2019-04-27T11:04:30.363Z,13.08
2019-04-27T11:06:35.880Z,11.25
2019-04-27T11:08:38.112Z,13.83
2019-04-27T11:10:40.166Z,13.88
2019-04-27T11:12:42.324Z,14.43
2019-04-27T11:14:44.282Z,10.50
2019-04-27T11:16:46.321Z,13.68
2019-04-27T11:18:48.584Z,25.90
2019-04-27T11:20:50.612Z,20.35
2019-04-27T11:23:06.657Z,19.42
2019-04-27T11:24:58.297Z,18.82
2019-04-27T11:27:00.401Z,14.78
2019-04-27T11:29:02.382Z,24.12
2019-04-27T11:31:05.622Z,11.80
2019-04-27T11:33:07.798Z,10.63
2019-04-27T11:35:21.649Z,9.13
2019-04-27T11:37:28.709Z,7.60
2019-04-27T11:39:30.954Z,16.02
2019-04-27T11:41:32.994Z,8.85
2019-04-27T11:43:36.163Z,9.63
2019-04-27T11:45:38.329Z,12.88
2019-04-27T11:47:40.380Z,11.38
2019-04-27T11:49:42.521Z,18.87
2019-04-27T11:51:46.631Z,18.30
2019-04-27T11:53:48.860Z,14.15
2019-04-27T11:55:50.844Z,12.98
2019-04-27T11:57:53.045Z,7.20
2019-04-27T11:59:56.287Z,10.70
2019-04-27T12:01:59.000Z,13.03
2019-04-27T12:04:01.846Z,9.93
2019-04-27T12:06:03.883Z,17.50
2019-04-27T12:08:06.733Z,13.48
2019-04-27T12:10:09.162Z,14.38
2019-04-27T12:14:16.202Z,16.37
2019-04-27T12:16:18.569Z,13.10
2019-04-27T12:18:21.487Z,12.73
2019-04-27T12:20:25.631Z,10.70
2019-04-27T12:22:27.786Z,13.50
2019-04-27T12:24:29.803Z,14.85
2019-04-27T12:26:50.592Z,11.05
2019-04-27T12:28:53.249Z,14.25
2019-04-27T12:31:13.230Z,12.00
2019-04-27T12:33:15.226Z,11.48
2019-04-27T12:35:17.334Z,12.10
2019-04-27T12:37:19.646Z,12.63
2019-04-27T12:39:21.645Z,11.03
2019-04-27T12:41:24.094Z,12.98
2019-04-27T12:43:26.223Z,15.50
2019-04-27T12:45:28.415Z,11.90
2019-04-27T12:47:30.648Z,11.33
2019-04-27T12:49:33.037Z,17.85
2019-04-27T12:51:35.823Z,10.35
2019-04-27T12:53:55.959Z,14.13
2019-04-27T12:56:06.753Z,14.38
2019-04-27T12:58:16.962Z,17.52
2019-04-27T13:00:22.611Z,11.57
2019-04-27T13:02:28.122Z,15.28
2019-04-27T13:04:30.122Z,9.48
2019-04-27T13:06:32.271Z,13.03
2019-04-27T13:08:35.707Z,20.82
2019-04-27T13:10:38.108Z,14.65
2019-04-27T13:12:40.263Z,12.30
2019-04-27T13:14:42.598Z,17.32
2019-04-27T13:16:45.720Z,12.60
2019-04-27T13:18:48.636Z,14.13
2019-04-27T13:20:50.844Z,13.32
2019-04-27T13:22:52.867Z,16.15
2019-04-27T13:24:56.651Z,12.10
2019-04-27T13:26:59.950Z,22.70
2019-04-27T13:29:01.993Z,17.92
2019-04-27T13:31:06.749Z,16.25
2019-04-27T13:33:09.124Z,13.85
2019-04-27T13:35:11.541Z,14.45
2019-04-27T13:39:38.717Z,16.20
2019-04-27T13:41:41.006Z,14.80
2019-04-27T13:43:43.035Z,13.03
2019-04-27T13:46:10.294Z,17.12
2019-04-27T13:48:30.981Z,14.28
2019-04-27T13:50:40.169Z,13.10
2019-04-27T13:52:42.844Z,14.58
2019-04-27T13:54:45.874Z,17.00
2019-04-27T13:56:48.105Z,15.23
2019-04-27T13:58:50.157Z,15.75
2019-04-27T14:00:52.572Z,14.53
2019-04-27T14:02:54.687Z,13.90
2019-04-27T14:04:56.742Z,14.05
2019-04-27T14:06:59.075Z,15.05
2019-04-27T14:09:04.450Z,19.35
2019-04-27T14:11:09.529Z,18.32
2019-04-27T14:13:12.144Z,21.75
2019-04-27T14:15:14.198Z,15.75
2019-04-27T14:17:19.377Z,10.98
2019-04-27T14:19:22.810Z,14.85
2019-04-27T14:21:24.877Z,15.72
2019-04-27T14:23:28.843Z,23.25
2019-04-27T14:25:30.838Z,24.23
2019-04-27T14:27:40.631Z,22.37
2019-04-27T14:29:43.040Z,20.23
2019-04-27T14:31:45.075Z,32.58
2019-04-27T14:33:48.423Z,28.57
2019-04-27T14:35:50.781Z,32.08
2019-04-27T14:37:53.158Z,34.30
2019-04-27T14:41:58.049Z,28.70
2019-04-27T14:44:07.763Z,30.45
2019-04-27T14:46:04.294Z,19.77
2019-04-27T14:48:08.165Z,19.12
2019-04-27T14:50:10.502Z,27.93
2019-04-27T14:52:13.841Z,26.90
2019-04-27T14:54:17.119Z,21.35
2019-04-27T14:56:19.216Z,20.82
2019-04-27T14:58:21.506Z,22.55
2019-04-27T15:00:23.651Z,21.05
2019-04-27T15:02:25.763Z,23.75
2019-04-27T15:04:27.872Z,22.93
2019-04-27T15:06:32.491Z,14.85
2019-04-27T15:08:38.248Z,21.33
2019-04-27T15:10:38.590Z,19.57
2019-04-27T15:12:40.651Z,16.50
2019-04-27T15:14:42.697Z,17.52
2019-04-27T15:16:47.152Z,18.00
2019-04-27T15:18:53.811Z,11.22
2019-04-27T15:20:58.440Z,18.87
2019-04-27T15:23:01.078Z,27.85
2019-04-27T15:25:12.936Z,37.03
2019-04-27T15:27:11.600Z,30.10
2019-04-27T15:29:15.119Z,29.10
2019-04-27T15:31:27.035Z,29.82
2019-04-27T15:33:53.295Z,24.75
2019-04-27T15:36:02.068Z,16.65
2019-04-27T15:38:13.740Z,14.15
2019-04-27T15:40:33.342Z,16.05
2019-04-27T15:42:49.633Z,17.60
2019-04-27T15:46:51.661Z,15.65
2019-04-27T15:48:54.365Z,18.95
2019-04-27T15:51:03.328Z,14.10
2019-04-27T15:53:09.464Z,15.40
2019-04-27T15:55:31.168Z,10.55
2019-04-27T15:57:13.869Z,12.95
2019-04-27T15:59:16.159Z,16.35
2019-04-27T16:01:18.194Z,16.55
2019-04-27T16:03:22.676Z,24.15
2019-04-27T16:05:28.683Z,13.03
2019-04-27T16:07:31.743Z,11.50
2019-04-27T16:09:32.605Z,16.95
2019-04-27T16:11:34.634Z,18.50
2019-04-27T16:13:38.271Z,19.05
2019-04-27T16:15:40.378Z,12.18
2019-04-27T16:17:50.910Z,25.23
2019-04-27T16:19:50.118Z,28.77
2019-04-27T16:21:54.284Z,14.03
2019-04-27T16:23:54.935Z,12.20
2019-04-27T16:25:58.174Z,11.93
2019-04-27T16:28:04.587Z,12.37
2019-04-27T16:30:11.591Z,11.80
2019-04-27T16:32:11.309Z,16.52
2019-04-27T16:34:13.043Z,12.33
2019-04-27T16:36:15.305Z,10.85
2019-04-27T16:38:38.717Z,17.52
2019-04-27T16:40:40.958Z,14.00
2019-04-27T16:42:45.250Z,25.85
2019-04-27T16:44:49.555Z,15.23
2019-04-27T16:46:51.248Z,24.67
2019-04-27T16:48:55.239Z,24.35
2019-04-27T16:50:59.261Z,24.87
2019-04-27T16:53:01.288Z,32.90
2019-04-27T16:57:07.980Z,24.57
2019-04-27T16:59:36.446Z,19.37
2019-04-27T17:01:22.358Z,8.30
2019-04-27T17:03:24.611Z,15.38
2019-04-27T17:05:30.860Z,7.67
2019-04-27T17:07:37.367Z,9.28
2019-04-27T17:09:36.243Z,16.15
2019-04-27T17:11:43.806Z,16.48
2019-04-27T17:13:49.710Z,13.85
2019-04-27T17:16:24.733Z,13.28
2019-04-27T17:18:35.978Z,14.93
2019-04-27T17:20:39.604Z,14.40
2019-04-27T17:22:45.551Z,14.18
2019-04-27T17:24:49.177Z,11.83
2019-04-27T17:26:50.580Z,8.93
2019-04-27T17:28:59.277Z,12.60
2019-04-27T17:31:01.600Z,14.60
2019-04-27T17:33:15.100Z,11.80
2019-04-27T17:35:15.171Z,11.90
2019-04-27T17:39:19.303Z,13.40
2019-04-27T17:41:22.830Z,9.43
2019-04-27T17:43:24.856Z,11.78
2019-04-27T17:45:30.502Z,8.63
2019-04-27T17:47:31.501Z,12.82
2019-04-27T17:49:33.692Z,10.93
2019-04-27T17:51:42.894Z,11.15
2019-04-27T17:53:43.003Z,19.70
2019-04-27T17:55:45.040Z,14.83
2019-04-27T17:57:49.073Z,13.22
2019-04-27T17:59:58.862Z,7.92
2019-04-27T18:02:00.691Z,10.93
2019-04-27T18:04:03.102Z,19.95
2019-04-27T18:06:05.227Z,15.45
2019-04-27T18:12:15.812Z,14.33
2019-04-27T18:14:19.435Z,15.58
2019-04-27T18:16:30.446Z,10.30
2019-04-27T18:18:41.002Z,11.43
2019-04-27T18:20:43.082Z,8.98
2019-04-27T18:22:49.238Z,12.63
2019-04-27T18:25:06.021Z,16.62
2019-04-27T18:27:13.467Z,10.38
2019-04-27T18:29:15.603Z,8.40
2019-04-27T18:31:17.963Z,8.05
2019-04-27T18:33:20.201Z,6.58
2019-04-27T18:35:26.221Z,8.85
2019-04-27T18:37:28.223Z,9.33
2019-04-27T18:39:30.388Z,8.98
2019-04-27T18:41:32.440Z,6.05
2019-04-27T18:43:34.626Z,12.25
2019-04-27T18:45:38.043Z,28.65
2019-04-27T18:47:43.181Z,15.15
2019-04-27T18:50:14.736Z,15.35
2019-04-27T18:52:35.635Z,7.87
2019-04-27T18:54:40.744Z,12.85
2019-04-27T18:56:41.811Z,10.23
2019-04-27T18:58:43.981Z,14.70
2019-04-27T19:00:48.338Z,12.82
2019-04-27T19:02:50.792Z,5.53
2019-04-27T19:04:52.869Z,6.65
2019-04-27T19:06:55.129Z,10.20
2019-04-27T19:08:58.985Z,11.60
2019-04-27T19:11:01.156Z,8.73
2019-04-27T19:13:03.353Z,12.18
2019-04-27T19:15:08.015Z,13.08
2019-04-27T19:17:10.682Z,14.87
2019-04-27T19:19:12.836Z,16.55
2019-04-27T19:21:14.925Z,10.72
2019-04-27T19:23:17.114Z,10.72
2019-04-27T19:25:33.297Z,10.18
2019-04-27T19:27:54.759Z,9.45
2019-04-27T19:30:01.160Z,11.20
2019-04-27T19:32:03.474Z,9.00
2019-04-27T19:34:06.875Z,7.55
2019-04-27T19:38:11.039Z,5.08
2019-04-27T19:40:13.498Z,10.95
2019-04-27T19:44:18.743Z,9.35
2019-04-27T19:46:21.336Z,11.28
2019-04-27T19:48:24.607Z,12.20
2019-04-27T19:50:28.568Z,7.10
2019-04-27T19:52:30.883Z,8.33
2019-04-27T19:54:33.075Z,9.68
2019-04-27T19:56:38.410Z,7.35
2019-04-27T19:58:45.221Z,7.80
2019-04-27T20:01:11.495Z,5.85
2019-04-27T20:03:08.730Z,8.73
2019-04-27T20:05:16.310Z,7.03
2019-04-27T20:07:18.206Z,10.93
2019-04-27T20:09:25.740Z,8.03
2019-04-27T20:11:27.758Z,5.92
2019-04-27T20:13:29.812Z,8.05
2019-04-27T20:15:31.840Z,5.95
2019-04-27T20:17:34.012Z,11.55
2019-04-27T20:19:36.298Z,5.80
2019-04-27T20:21:38.374Z,7.40
2019-04-27T20:23:40.880Z,11.48
2019-04-27T20:25:44.114Z,7.97
2019-04-27T20:27:49.548Z,6.70
2019-04-27T20:29:52.473Z,11.28
2019-04-27T20:31:54.516Z,7.60
2019-04-27T20:33:56.644Z,14.00
2019-04-27T20:35:58.650Z,5.37
2019-04-27T20:38:00.712Z,13.55
2019-04-27T20:40:03.511Z,13.85
2019-04-27T20:42:05.770Z,5.17
2019-04-27T20:44:08.254Z,14.40
2019-04-27T20:48:14.185Z,12.85
2019-04-27T20:50:16.213Z,8.43
2019-04-27T20:52:37.910Z,8.45
2019-04-27T20:54:41.525Z,11.50
2019-04-27T20:56:44.109Z,11.35
2019-04-27T21:00:49.259Z,7.83
2019-04-27T21:02:58.071Z,12.60
2019-04-27T21:05:21.086Z,9.53
2019-04-27T21:07:38.304Z,7.72
2019-04-27T21:09:41.414Z,8.98
2019-04-27T21:11:45.488Z,9.70
2019-04-27T21:13:47.661Z,9.65
2019-04-27T21:15:50.912Z,10.03
2019-04-27T21:17:53.271Z,6.85
2019-04-27T21:19:55.320Z,7.00
2019-04-27T21:21:57.573Z,11.10
2019-04-27T21:23:59.623Z,5.78
2019-04-27T21:26:02.280Z,9.83
2019-04-27T21:28:15.314Z,14.38
2019-04-27T21:30:08.665Z,4.78
2019-04-27T21:32:11.162Z,4.83
2019-04-27T21:34:13.328Z,11.73
2019-04-27T21:36:15.413Z,6.28
2019-04-27T21:38:17.792Z,11.93
2019-04-27T21:42:23.627Z,10.32
2019-04-27T21:44:25.650Z,11.80
2019-04-27T21:46:27.780Z,6.20
2019-04-27T21:48:31.251Z,16.82
2019-04-27T21:50:33.730Z,11.45
2019-04-27T21:52:38.058Z,13.18
2019-04-27T21:54:41.202Z,7.35
2019-04-27T21:56:43.409Z,7.03
2019-04-27T21:58:45.541Z,11.00
2019-04-27T22:01:13.019Z,6.50
2019-04-27T22:03:16.213Z,11.50
2019-04-27T22:05:18.811Z,7.25
2019-04-27T22:07:21.606Z,7.15
2019-04-27T22:09:23.666Z,8.73
2019-04-27T22:11:25.894Z,11.95
2019-04-27T22:13:28.254Z,7.53
2019-04-27T22:17:33.869Z,9.33
2019-04-27T22:19:36.937Z,15.25
2019-04-27T22:21:39.153Z,8.13
2019-04-27T22:24:01.055Z,6.65
2019-04-27T22:26:03.191Z,7.80
2019-04-27T22:28:05.505Z,3.40
2019-04-27T22:30:08.320Z,12.33
2019-04-27T22:32:10.761Z,6.33
2019-04-27T22:36:14.704Z,9.73
2019-04-27T22:38:16.907Z,9.33
2019-04-27T22:40:41.943Z,8.08
2019-04-27T22:43:19.138Z,8.08
2019-04-27T22:45:26.971Z,10.40
2019-04-27T22:47:31.861Z,7.03
2019-04-27T22:49:34.354Z,8.28
2019-04-27T22:53:38.152Z,7.45
2019-04-27T22:55:59.822Z,7.75
2019-04-27T22:58:08.481Z,3.27
2019-04-27T23:00:25.802Z,7.72
2019-04-27T23:02:52.150Z,10.40
2019-04-27T23:04:57.408Z,6.50
2019-04-27T23:07:00.611Z,6.90
2019-04-27T23:09:04.649Z,9.23
2019-04-27T23:11:10.824Z,7.92
2019-04-27T23:15:19.327Z,8.88
2019-04-27T23:17:37.502Z,6.53
2019-04-27T23:19:40.852Z,10.78
2019-04-27T23:21:43.501Z,6.53
2019-04-27T23:23:45.602Z,12.35
2019-04-27T23:25:51.211Z,12.00
2019-04-27T23:27:53.238Z,9.20
2019-04-27T23:29:55.236Z,8.05
2019-04-27T23:32:03.568Z,9.15
2019-04-27T23:34:05.573Z,9.58
2019-04-27T23:36:07.653Z,5.37
2019-04-27T23:38:17.583Z,9.20
2019-04-27T23:40:14.133Z,12.75
2019-04-27T23:42:16.142Z,6.60
2019-04-27T23:44:18.285Z,7.78
2019-04-27T23:46:21.479Z,11.40
2019-04-27T23:48:25.034Z,5.50
2019-04-27T23:50:31.289Z,6.62
2019-04-27T23:52:52.980Z,5.30
2019-04-27T23:54:55.198Z,5.47
2019-04-27T23:56:57.244Z,4.67
2019-04-27T23:58:59.702Z,12.20
